Crown Of Scandinavia — OXRA6 — position and weather

sailwx.info

Track history (hours):
 
Tides and Currents Weather Stations Pressure Air Temp Water Temp Dewpoint Dewpoint Depression Visibility Wind Speed Wind Dir Waves Ship Positions

Crown Of Scandinavia

Last reported at 2020-Sep-29 07:01 UTC. Time now 2020-Sep-29 07:14 UTC.
Position N 55°42' E 012°36'.

Length 171 m; draft 6.3 m.

Type: Passenger vessel. MMSI: 219592000.

Date/timePositionNaut miles runAvg speedWind from/ knotsBaromVisibWave heightAir tempDewpointWater temp
2020-Sep-29 07:01N 55°42' E 012°36'2814.2
2020-Sep-29 05:00N 56°10' E 012°25'918.5
2020-Sep-29 04:30N 56°17' E 012°14'7418.5
2020-Sep-29 00:30N 57°26' E 011°25'25 9.8
2020-Sep-28 21:57N 57°25' E 010°38'2412.4
2020-Sep-28 20:00N 57°49' E 010°46'816.6
2020-Sep-28 19:30N 57°57' E 010°46'1917.2
2020-Sep-28 18:25N 58°16' E 010°46'1616.3
2020-Sep-28 17:25N 58°33' E 010°42'816.5
2020-Sep-28 16:56N 58°40' E 010°41'1516.5
2020-Sep-28 16:00N 58°56' E 010°39'3417.1
2020-Sep-28 14:00N 59°30' E 010°34'2512.5
2020-Sep-28 12:00N 59°54' E 010°45'0 0.0
2020-Sep-28 11:31N 59°54' E 010°45'0 0.0
2020-Sep-28 11:01N 59°54' E 010°45'0 0.0
2020-Sep-28 10:31N 59°54' E 010°45'0 0.0
2020-Sep-28 08:31N 59°54' E 010°45'0 0.0
2020-Sep-28 07:31N 59°54' E 010°45'5913.2
2020-Sep-28 03:00N 58°55' E 010°40'2415.7
2020-Sep-28 01:31N 58°31' E 010°42'918.1
2020-Sep-28 01:00N 58°22' E 010°45'5418.1
2020-Sep-27 22:00N 57°28' E 010°43'7 3.3
2020-Sep-27 20:00N 57°28' E 010°55'1615.9
2020-Sep-27 19:00N 57°25' E 011°25'3416.8
2020-Sep-27 17:00N 56°59' E 012°03'5117.2
2020-Sep-27 14:00N 56°10' E 012°29'1817.8
2020-Sep-27 13:00N 55°54' E 012°45'13 4.4
2020-Sep-27 10:00N 55°42' E 012°36'0 0.0
2020-Sep-27 07:29N 55°42' E 012°36'12114.2
2020-Sep-26 23:00N 57°27' E 010°47'7 7.4
2020-Sep-26 22:01N 57°26' E 010°33'4013.2
2020-Sep-26 19:00N 58°05' E 010°45'6215.6
2020-Sep-26 15:01N 59°08' E 010°39'4711.7
2020-Sep-26 11:00N 59°54' E 010°45'0 0.0
2020-Sep-26 09:30N 59°54' E 010°45'0 0.0
2020-Sep-26 08:00N 59°54' E 010°45'1 2.3
2020-Sep-26 07:31N 59°54' E 010°42'815.1
2020-Sep-26 07:00N 59°47' E 010°35'714.2
2020-Sep-26 06:30N 59°40' E 010°37'1515.3
2020-Sep-26 05:30N 59°25' E 010°34'8817.6
2020-Sep-26 00:30N 57°59' E 011°06'1616.3
2020-Sep-25 23:30N 57°43' E 011°10'23 7.5
2020-Sep-25 20:29N 57°26' E 010°41'1716.9
2020-Sep-25 19:31N 57°30' E 011°11'9016.8
2020-Sep-25 14:08N 56°10' E 012°28'217.6
2020-Sep-25 14:01N 56°09' E 012°30'917.7
2020-Sep-25 13:31N 56°02' E 012°40'20 3.7
2020-Sep-25 08:12N 55°42' E 012°36'0 0.0
2020-Sep-25 07:31N 55°42' E 012°36'5 9.2
2020-Sep-25 07:01N 55°46' E 012°41'1717.4
2020-Sep-25 06:00N 56°03' E 012°39'9717.7
2020-Sep-25 00:31N 57°30' E 011°17'8210.8
2020-Sep-24 16:58N 58°49' E 010°44'1010.5
2020-Sep-24 16:00N 58°59' E 010°42'612.9
2020-Sep-24 15:30N 59°06' E 010°40'2416.0
2020-Sep-24 14:00N 59°30' E 010°34'25 3.9
2020-Sep-24 07:30N 59°54' E 010°45'9 8.7
2020-Sep-24 06:30N 59°47' E 010°34'1515.0
2020-Sep-24 05:31N 59°32' E 010°37'4016.2
2020-Sep-24 03:01N 58°52' E 010°41'816.5
2020-Sep-24 02:30N 58°44' E 010°43'816.6
2020-Sep-24 02:00N 58°36' E 010°48'7015.5
2020-Sep-23 21:30N 57°26' E 010°33'14 9.4
2020-Sep-23 20:00N 57°27' E 010°59'916.2
2020-Sep-23 19:25N 57°30' E 011°16'016.4
2020-Sep-23 19:24N 57°30' E 011°17'717.0
2020-Sep-23 19:01N 57°25' E 011°26'6616.5
2020-Sep-23 15:00N 56°26' E 012°19'1717.4
2020-Sep-23 14:00N 56°10' E 012°29'2813.6
2020-Sep-23 11:58N 55°42' E 012°36'0 0.0
2020-Sep-23 10:59N 55°42' E 012°36'0 0.0
2020-Sep-23 10:17N 55°42' E 012°36'81 9.8
2020-Sep-23 02:01N 56°58' E 011°43'4314.3
2020-Sep-22 23:01N 57°26' E 010°44'7511.5
2020-Sep-22 16:30N 58°40' E 010°40'817.2
2020-Sep-22 16:01N 58°49' E 010°40'917.1
2020-Sep-22 15:30N 58°57' E 010°39'5515.9
2020-Sep-22 12:01N 59°53' E 010°39'3 2.9
2020-Sep-22 11:00N 59°54' E 010°45'0 0.0
2020-Sep-22 10:00N 59°54' E 010°45'0 0.0
2020-Sep-22 09:27N 59°54' E 010°45'0 0.0
2020-Sep-22 08:00N 59°54' E 010°45'0 0.0
2020-Sep-22 07:30N 59°54' E 010°45'0 0.0
2020-Sep-22 07:00N 59°54' E 010°45'2412.0
2020-Sep-22 05:00N 59°31' E 010°35'1717.3
2020-Sep-22 04:00N 59°13' E 010°38'917.7
2020-Sep-22 03:31N 59°05' E 010°41'7917.7
2020-Sep-21 23:00N 57°45' E 010°49'1817.7
2020-Sep-21 22:00N 57°28' E 010°43'611.1
2020-Sep-21 21:30N 57°26' E 010°33'4 4.2
2020-Sep-21 20:28N 57°25' E 010°40'4314.6
2020-Sep-21 17:30N 57°10' E 011°56'2818.5
2020-Sep-21 16:00N 56°46' E 012°20'3316.6
2020-Sep-21 14:01N 56°13' E 012°27'31 8.9
2020-Sep-21 10:30N 55°42' E 012°36'0 0.0
2020-Sep-21 08:14N 55°42' E 012°36'0 0.0
2020-Sep-21 07:29N 55°42' E 012°36'2010.0
2020-Sep-21 05:30N 56°02' E 012°39'7017.6
2020-Sep-21 01:30N 57°04' E 011°39'1817.6
2020-Sep-21 00:30N 57°20' E 011°27'1615.7
2020-Sep-20 23:30N 57°30' E 011°04'27 6.7
2020-Sep-20 19:30N 57°56' E 010°51'816.7
2020-Sep-20 19:00N 58°04' E 010°54'1716.4
2020-Sep-20 17:59N 58°21' E 010°51'816.1
2020-Sep-20 17:30N 58°28' E 010°49'816.0
2020-Sep-20 17:00N 58°36' E 010°47'816.3
2020-Sep-20 16:30N 58°44' E 010°44'816.6
2020-Sep-20 16:00N 58°52' E 010°44'2516.6
2020-Sep-20 14:30N 59°17' E 010°36'3115.7
2020-Sep-20 12:30N 59°48' E 010°33'715.0
2020-Sep-20 12:00N 59°54' E 010°44'1 1.2
2020-Sep-20 11:30N 59°54' E 010°45'0 0.0
2020-Sep-20 10:30N 59°54' E 010°45'0 0.0
2020-Sep-20 08:30N 59°54' E 010°45'0 0.0
2020-Sep-20 07:00N 59°54' E 010°45'1111.0
2020-Sep-20 06:01N 59°45' E 010°35'9616.0
2020-Sep-20 00:00N 58°09' E 010°52'4512.8
2020-Sep-19 20:30N 57°25' E 010°35'2315.3
2020-Sep-19 19:00N 57°29' E 011°17'2617.0
2020-Sep-19 17:30N 57°14' E 011°55'2017.1
2020-Sep-19 16:19N 56°54' E 012°07'4017.0
2020-Sep-19 13:57N 56°15' E 012°25'3411.3
2020-Sep-19 10:57N 55°42' E 012°36'  
Track history (hours):
 
Tides and Currents Weather Stations Pressure Air Temp Water Temp Dewpoint Dewpoint Depression Visibility Wind Speed Wind Dir Waves Ship Positions

Crown Of Scandinavia

Last reported at 2020-Sep-29 07:01 UTC. Time now 2020-Sep-29 07:14 UTC.
Position N 55°42' E 012°36'.

Length 171 m; draft 6.3 m.

Type: Passenger vessel. MMSI: 219592000.

Date/timePositionNaut miles runAvg speedWind from/ knotsBaromVisibWave heightAir tempDewpointWater temp
2020-Sep-29 07:01N 55°42' E 012°36'2814.2
2020-Sep-29 05:00N 56°10' E 012°25'918.5
2020-Sep-29 04:30N 56°17' E 012°14'7418.5
2020-Sep-29 00:30N 57°26' E 011°25'25 9.8
2020-Sep-28 21:57N 57°25' E 010°38'2412.4
2020-Sep-28 20:00N 57°49' E 010°46'816.6
2020-Sep-28 19:30N 57°57' E 010°46'1917.2
2020-Sep-28 18:25N 58°16' E 010°46'1616.3
2020-Sep-28 17:25N 58°33' E 010°42'816.5
2020-Sep-28 16:56N 58°40' E 010°41'1516.5
2020-Sep-28 16:00N 58°56' E 010°39'3417.1
2020-Sep-28 14:00N 59°30' E 010°34'2512.5
2020-Sep-28 12:00N 59°54' E 010°45'0 0.0
2020-Sep-28 11:31N 59°54' E 010°45'0 0.0
2020-Sep-28 11:01N 59°54' E 010°45'0 0.0
2020-Sep-28 10:31N 59°54' E 010°45'0 0.0
2020-Sep-28 08:31N 59°54' E 010°45'0 0.0
2020-Sep-28 07:31N 59°54' E 010°45'5913.2
2020-Sep-28 03:00N 58°55' E 010°40'2415.7
2020-Sep-28 01:31N 58°31' E 010°42'918.1
2020-Sep-28 01:00N 58°22' E 010°45'5418.1
2020-Sep-27 22:00N 57°28' E 010°43'7 3.3
2020-Sep-27 20:00N 57°28' E 010°55'1615.9
2020-Sep-27 19:00N 57°25' E 011°25'3416.8
2020-Sep-27 17:00N 56°59' E 012°03'5117.2
2020-Sep-27 14:00N 56°10' E 012°29'1817.8
2020-Sep-27 13:00N 55°54' E 012°45'13 4.4
2020-Sep-27 10:00N 55°42' E 012°36'0 0.0
2020-Sep-27 07:29N 55°42' E 012°36'12114.2
2020-Sep-26 23:00N 57°27' E 010°47'7 7.4
2020-Sep-26 22:01N 57°26' E 010°33'4013.2
2020-Sep-26 19:00N 58°05' E 010°45'6215.6
2020-Sep-26 15:01N 59°08' E 010°39'4711.7
2020-Sep-26 11:00N 59°54' E 010°45'0 0.0
2020-Sep-26 09:30N 59°54' E 010°45'0 0.0
2020-Sep-26 08:00N 59°54' E 010°45'1 2.3
2020-Sep-26 07:31N 59°54' E 010°42'815.1
2020-Sep-26 07:00N 59°47' E 010°35'714.2
2020-Sep-26 06:30N 59°40' E 010°37'1515.3
2020-Sep-26 05:30N 59°25' E 010°34'8817.6
2020-Sep-26 00:30N 57°59' E 011°06'1616.3
2020-Sep-25 23:30N 57°43' E 011°10'23 7.5
2020-Sep-25 20:29N 57°26' E 010°41'1716.9
2020-Sep-25 19:31N 57°30' E 011°11'9016.8
2020-Sep-25 14:08N 56°10' E 012°28'217.6
2020-Sep-25 14:01N 56°09' E 012°30'917.7
2020-Sep-25 13:31N 56°02' E 012°40'20 3.7
2020-Sep-25 08:12N 55°42' E 012°36'0 0.0
2020-Sep-25 07:31N 55°42' E 012°36'5 9.2
2020-Sep-25 07:01N 55°46' E 012°41'1717.4
2020-Sep-25 06:00N 56°03' E 012°39'9717.7
2020-Sep-25 00:31N 57°30' E 011°17'8210.8
2020-Sep-24 16:58N 58°49' E 010°44'1010.5
2020-Sep-24 16:00N 58°59' E 010°42'612.9
2020-Sep-24 15:30N 59°06' E 010°40'2416.0
2020-Sep-24 14:00N 59°30' E 010°34'25 3.9
2020-Sep-24 07:30N 59°54' E 010°45'9 8.7
2020-Sep-24 06:30N 59°47' E 010°34'1515.0
2020-Sep-24 05:31N 59°32' E 010°37'4016.2
2020-Sep-24 03:01N 58°52' E 010°41'816.5
2020-Sep-24 02:30N 58°44' E 010°43'816.6
2020-Sep-24 02:00N 58°36' E 010°48'7015.5
2020-Sep-23 21:30N 57°26' E 010°33'14 9.4
2020-Sep-23 20:00N 57°27' E 010°59'916.2
2020-Sep-23 19:25N 57°30' E 011°16'016.4
2020-Sep-23 19:24N 57°30' E 011°17'717.0
2020-Sep-23 19:01N 57°25' E 011°26'6616.5
2020-Sep-23 15:00N 56°26' E 012°19'1717.4
2020-Sep-23 14:00N 56°10' E 012°29'2813.6
2020-Sep-23 11:58N 55°42' E 012°36'0 0.0
2020-Sep-23 10:59N 55°42' E 012°36'0 0.0
2020-Sep-23 10:17N 55°42' E 012°36'81 9.8
2020-Sep-23 02:01N 56°58' E 011°43'4314.3
2020-Sep-22 23:01N 57°26' E 010°44'7511.5
2020-Sep-22 16:30N 58°40' E 010°40'817.2
2020-Sep-22 16:01N 58°49' E 010°40'917.1
2020-Sep-22 15:30N 58°57' E 010°39'5515.9
2020-Sep-22 12:01N 59°53' E 010°39'3 2.9
2020-Sep-22 11:00N 59°54' E 010°45'0 0.0
2020-Sep-22 10:00N 59°54' E 010°45'0 0.0
2020-Sep-22 09:27N 59°54' E 010°45'0 0.0
2020-Sep-22 08:00N 59°54' E 010°45'0 0.0
2020-Sep-22 07:30N 59°54' E 010°45'0 0.0
2020-Sep-22 07:00N 59°54' E 010°45'2412.0
2020-Sep-22 05:00N 59°31' E 010°35'1717.3
2020-Sep-22 04:00N 59°13' E 010°38'917.7
2020-Sep-22 03:31N 59°05' E 010°41'7917.7
2020-Sep-21 23:00N 57°45' E 010°49'1817.7
2020-Sep-21 22:00N 57°28' E 010°43'611.1
2020-Sep-21 21:30N 57°26' E 010°33'4 4.2
2020-Sep-21 20:28N 57°25' E 010°40'4314.6
2020-Sep-21 17:30N 57°10' E 011°56'2818.5
2020-Sep-21 16:00N 56°46' E 012°20'3316.6
2020-Sep-21 14:01N 56°13' E 012°27'31 8.9
2020-Sep-21 10:30N 55°42' E 012°36'0 0.0
2020-Sep-21 08:14N 55°42' E 012°36'0 0.0
2020-Sep-21 07:29N 55°42' E 012°36'2010.0
2020-Sep-21 05:30N 56°02' E 012°39'7017.6
2020-Sep-21 01:30N 57°04' E 011°39'1817.6
2020-Sep-21 00:30N 57°20' E 011°27'1615.7
2020-Sep-20 23:30N 57°30' E 011°04'27 6.7
2020-Sep-20 19:30N 57°56' E 010°51'816.7
2020-Sep-20 19:00N 58°04' E 010°54'1716.4
2020-Sep-20 17:59N 58°21' E 010°51'816.1
2020-Sep-20 17:30N 58°28' E 010°49'816.0
2020-Sep-20 17:00N 58°36' E 010°47'816.3
2020-Sep-20 16:30N 58°44' E 010°44'816.6
2020-Sep-20 16:00N 58°52' E 010°44'2516.6
2020-Sep-20 14:30N 59°17' E 010°36'3115.7
2020-Sep-20 12:30N 59°48' E 010°33'715.0
2020-Sep-20 12:00N 59°54' E 010°44'1 1.2
2020-Sep-20 11:30N 59°54' E 010°45'0 0.0
2020-Sep-20 10:30N 59°54' E 010°45'0 0.0
2020-Sep-20 08:30N 59°54' E 010°45'0 0.0
2020-Sep-20 07:00N 59°54' E 010°45'1111.0
2020-Sep-20 06:01N 59°45' E 010°35'9616.0
2020-Sep-20 00:00N 58°09' E 010°52'4512.8
2020-Sep-19 20:30N 57°25' E 010°35'2315.3
2020-Sep-19 19:00N 57°29' E 011°17'2617.0
2020-Sep-19 17:30N 57°14' E 011°55'2017.1
2020-Sep-19 16:19N 56°54' E 012°07'4017.0
2020-Sep-19 13:57N 56°15' E 012°25'3411.3
2020-Sep-19 10:57N 55°42' E 012°36'  

Dump ship's entire track history